Latest Coastal Weather Observations for Hobart Airport

IDT60701

Issued at 7:12 pm EST Saturday 30 July 2016 (issued every 10 minutes, with the page automatically refreshed every 10 minutes)

About coastal observations | Map of coastal stations | Coastal observations for TAS | Marine services | Other Formats
Station Details ID: 094008 Name: HOBART AIRPORT Lat: -42.83 Lon: 147.50 Height: 4.0 m
Data from the previous 72 hours. | See also: Recent months at Hobart Airport
Date/Time
EST
Temp
°C
Wind Pressure Rain since
9am
mm
Weather Cloud Vis
km
Sea
Height
m
Swell
Dir  Spd
kts
Gust
kts
hPa Trend Height
m
Period
s
Dir
30/07:00pm 8.7 N 5 7 1009.3 - 0.0 - Mostly clear 10 - - - -
30/06:30pm 8.7 NNW 6 9 1009.4 - 0.0 - Mostly clear 10 - - - -
30/06:00pm 9.1 N 6 9 1009.7 F 0.0 Fine Mostly cloudy 40 - - - -
30/05:30pm 8.7 N 7 8 1010.1 - 0.0 - Mostly clear 10 - - - -
30/05:00pm 9.0 N 9 12 1010.3 - 0.0 - Mostly clear 10 - - - -
30/04:30pm 9.4 NNW 7 10 1011.0 - 0.0 - Mostly clear 10 - - - -
30/04:00pm 10.1 NNW 8 10 1011.5 - 0.0 - Mostly clear 10 - - - -
30/03:30pm 10.2 NNW 9 15 1012.2 - 0.0 - Mostly clear 10 - - - -
30/03:00pm 10.3 NNW 9 14 1012.3 F 0.0 Fine Mostly cloudy 40 - - - -
30/02:30pm 10.6 N 7 12 1012.6 - 0.0 - Mostly clear 10 - - - -
30/02:00pm 10.4 N 6 10 1013.4 - 0.0 - Mostly clear 10 - - - -
30/01:30pm 10.5 NW 6 9 1014.2 - 0.0 - Mostly clear 10 - - - -
30/01:00pm 9.6 NW 6 8 1014.9 - 0.0 - Mostly clear 10 - - - -
30/12:30pm 9.4 NW 6 8 1015.7 - 0.0 - Mostly clear 10 - - - -
30/12:00pm 9.0 NNW 7 10 1016.4 F 0.0 Fine Mostly clear 40 - - - -
30/11:30am 8.7 NNW 8 11 1017.3 - 0.0 - Mostly clear 10 - - - -
30/11:00am 8.2 NNW 7 10 1017.8 - 0.0 - Mostly clear 10 - - - -
30/10:30am 7.5 NW 6 8 1018.3 - 0.0 - Mostly clear 10 - - - -
30/10:00am 6.5 NNE 4 6 1018.6 - 0.0 - Mostly clear 10 - - - -
30/09:30am 4.9 NW 9 11 1018.9 - 0.0 - Mostly clear 10 - - - -
30/09:00am 4.7 NW 7 9 1019.1 R 0.8 Fine Mostly clear 40 - - - -
30/08:30am 3.8 NW 8 10 1019.0 - 0.8 - Mostly clear 10 - - - -
30/08:00am 2.5 WNW 4 6 1018.7 - 0.8 - Mostly clear 10 - - - -
30/07:30am 3.1 N 2 4 1018.6 - 0.8 - Mostly clear 10 - - - -
30/07:00am 2.9 NNW 7 9 1018.3 - 0.8 - Mostly clear 10 - - - -
30/06:30am 1.6 NW 7 8 1018.0 - 0.8 - Mostly clear 10 - - - -
30/06:00am 2.5 NW 5 6 1017.9 R 0.8 Fine Mostly clear 40 - - - -
30/05:30am 3.1 NW 7 7 1018.0 - 0.8 - Mostly clear 10 - - - -
30/05:00am 2.5 NNW 5 6 1017.9 - 0.8 - Mostly clear 10 - - - -
30/04:30am 3.6 NW 5 8 1018.1 - 0.8 - Mostly clear 10 - - - -
30/04:00am 3.8 NW 6 8 1017.9 - 0.8 - Mostly clear 10 - - - -
30/03:30am 5.0 WNW 8 9 1017.4 - 0.8 - Mostly clear 10 - - - -
30/03:00am 5.3 NW 8 9 1017.6 R 0.8 Fine Mostly clear 40 - - - -
30/02:30am 4.3 NNW 5 6 1017.5 - 0.8 - Mostly clear 10 - - - -
30/02:00am 4.6 CALM 0 3 1017.5 - 0.8 - Mostly clear 10 - - - -
30/01:30am 5.2 NNE 5 7 1017.2 - 0.8 - Mostly clear 10 - - - -
30/01:00am 6.5 WNW 1 4 1017.1 - 0.8 - Mostly clear 10 - - - -
30/12:30am 7.2 WSW 7 9 1016.9 - 0.8 - Mostly clear 10 - - - -
30/12:00am 8.5 SSW 9 20 1016.4 R 0.8 Fine Mostly clear 40 - - - -
 
Date/Time
EST
Temp
°C
Wind Pressure Rain since
9am
mm
Weather Cloud Vis
km
Sea
Height
m
Swell
Dir  Spd
kts
Gust
kts
hPa Trend Height
m
Period
s
Dir
29/11:30pm 7.4 WSW 7 11 1016.1 - 0.8 - Mostly cloudy 10 - - - -
29/11:00pm 7.7 WSW 9 13 1015.9 - 0.8 - Partly cloudy 10 - - - -
29/10:30pm 8.0 W 9 14 1015.4 - 0.8 - Mostly clear 10 - - - -
29/10:00pm 8.3 WSW 14 17 1014.6 - 0.8 - Mostly cloudy 10 - - - -
29/09:30pm 8.8 SW 14 19 1014.5 - 0.8 - Mostly cloudy 10 - - - -
29/09:00pm 8.7 SW 11 16 1014.3 R 0.8 Fine Mostly cloudy 40 - - - -
29/08:30pm 8.4 WSW 9 11 1013.8 - 0.8 - Mostly cloudy 10 - - - -
29/08:00pm 9.0 SW 15 21 1013.5 - 0.8 - Partly cloudy 10 - - - -
29/07:30pm 9.0 SW 18 26 1012.8 - 0.8 - Partly cloudy 10 - - - -
29/07:12pm 9.5 WSW 15 28 1012.1 - 0.8 - Partly cloudy 10 - - - -
29/07:00pm 9.4 SW 12 15 1011.6 - 0.8 - Mostly clear 10 - - - -
29/06:30pm 9.8 SW 18 25 1010.7 - 0.8 - Mostly clear 10 - - - -
29/06:00pm 10.3 SW 20 28 1010.0 R 0.8 Distant precip. Partly cloudy 30 - - - -
29/05:30pm 10.2 SW 21 31 1008.9 - 0.8 - Partly cloudy 10 - - - -
29/05:19pm 10.5 SW 18 32 1008.6 - 0.8 - Mostly clear 10 - - - -
29/05:00pm 10.5 SW 19 24 1008.2 - 0.8 - Mostly clear 10 - - - -
29/04:30pm 11.5 SW 17 23 1007.2 - 0.8 - Mostly clear 10 - - - -
29/04:00pm 11.2 WNW 10 14 1006.7 - 0.8 - Mostly clear 10 - - - -
29/03:30pm 11.2 WNW 13 18 1006.1 - 0.8 - Mostly clear 10 - - - -
29/03:00pm 12.5 WNW 15 18 1005.6 R 0.2 Showers Mostly cloudy 10 - - - -
29/02:30pm 13.0 WNW 13 20 1005.1 - 0.2 - Mostly cloudy 10 - - - -
29/02:23pm 13.0 WNW 18 28 1004.9 - 0.2 - Partly cloudy 10 - - - -
29/02:00pm 12.9 W 19 27 1004.6 - 0.2 - Partly cloudy 10 - - - -
29/01:46pm 13.0 WNW 18 28 1004.8 - 0.2 - Partly cloudy 10 - - - -
29/01:30pm 13.1 WNW 18 25 1004.6 - 0.2 - Partly cloudy 10 - - - -
29/01:16pm 12.9 WNW 18 29 1004.6 - 0.2 - Partly cloudy 10 - - - -
29/01:00pm 12.5 WNW 18 22 1005.1 - 0.2 - Partly cloudy 10 - - - -
29/12:30pm 12.2 WNW 16 21 1005.6 - 0.2 - Mostly clear 10 - - - -
29/12:00pm 13.2 WNW 19 25 1005.4 F 0.2 Recent precip. Partly cloudy 40 - - - -
29/11:35am 12.7 WNW 21 32 1005.5 - 0.2 - Mostly clear 10 - - - -
29/11:30am 12.3 WNW 19 26 1005.4 - 0.2 - Mostly clear 10 - - - -
29/11:12am 12.6 WNW 15 27 1006.1 - 0.2 Showers Partly cloudy 7 - - - -
29/11:00am 12.7 NNW 9 14 1006.1 - 0.2 - Mostly clear 10 - - - -
29/10:45am 11.4 WNW 12 18 1006.4 - 0.2 - Mostly clear 10 - - - -
29/10:30am 10.9 W 10 14 1006.8 - 0.2 Showers Mostly clear 7 - - - -
29/10:00am 11.2 NW 16 24 1006.5 - 0.0 - Mostly clear 5 - - - -
29/09:52am 11.8 NW 11 17 1006.3 - 0.0 Showers Partly cloudy 6 - - - -
29/09:30am 11.4 NW 12 17 1006.4 - 0.0 - Partly cloudy 10 - - - -
29/09:00am 11.4 NNW 9 15 1006.3 F 0.0 Distant precip. Partly cloudy 40 - - - -
29/08:30am 11.3 NNW 9 14 1006.7 - 0.0 - Mostly clear 10 - - - -
29/08:00am 10.0 NNW 11 16 1006.8 - 0.0 - Mostly clear 10 - - - -
29/07:30am 9.8 NNW 10 15 1007.0 - 0.0 - Mostly clear 10 - - - -
29/07:00am 10.0 NW 12 16 1006.8 - 0.0 - Mostly clear 10 - - - -
29/06:30am 10.0 NW 12 15 1007.0 - 0.0 - Mostly clear 10 - - - -
29/06:00am 9.5 NNW 10 14 1007.0 F 0.0 Fine Partly cloudy 40 - - - -
29/05:30am 9.5 NW 12 16 1007.0 - 0.0 - Partly cloudy 10 - - - -
29/05:00am 9.3 NNW 8 11 1007.4 - 0.0 - Partly cloudy 10 - - - -
29/04:30am 9.5 NNW 8 11 1007.5 - 0.0 - Partly cloudy 10 - - - -
29/04:00am 9.5 NNW 9 13 1007.5 - 0.0 - Partly cloudy 10 - - - -
29/03:30am 9.8 NNW 8 11 1008.0 - 0.0 - Mostly cloudy 10 - - - -
29/03:00am 10.5 NNW 12 16 1008.2 F 0.0 Fine Mostly cloudy 40 - - - -
29/02:30am 10.2 NNW 11 15 1008.4 - 0.0 - Partly cloudy 10 - - - -
29/02:00am 10.1 NNW 11 16 1008.8 - 0.0 - Mostly cloudy 10 - - - -
29/01:30am 9.8 NNW 10 15 1009.0 - 0.0 - Mostly cloudy 10 - - - -
29/01:00am 10.1 NNW 8 11 1009.2 - 0.0 - Mostly cloudy 10 - - - -
29/12:30am 9.9 NNW 7 10 1009.6 - 0.0 - Mostly cloudy 10 - - - -
29/12:00am 9.9 N 7 11 1009.7 F 0.0 Fine Mostly cloudy 40 - - - -
 
Date/Time
EST
Temp
°C
Wind Pressure Rain since
9am
mm
Weather Cloud Vis
km
Sea
Height
m
Swell
Dir  Spd
kts
Gust
kts
hPa Trend Height
m
Period
s
Dir
28/11:30pm 10.2 NNW 8 15 1010.2 - 0.0 - Mostly cloudy 10 - - - -
28/11:00pm 10.3 N 8 12 1010.2 - 0.0 - Mostly cloudy 10 - - - -
28/10:30pm 10.4 NW 10 13 1010.5 - 0.0 - Mostly cloudy 10 - - - -
28/10:00pm 10.3 NNW 10 13 1010.5 - 0.0 - Mostly cloudy 10 - - - -
28/09:30pm 10.7 NNW 11 15 1010.7 - 0.0 - Partly cloudy 10 - - - -
28/09:00pm 10.3 NNW 10 16 1010.8 R 0.0 Fine Partly cloudy 40 - - - -
28/08:30pm 11.2 NW 13 16 1010.7 - 0.0 - Partly cloudy 10 - - - -
28/08:00pm 11.4 NW 17 26 1010.8 - 0.0 - Mostly clear 10 - - - -
28/07:30pm 11.2 NW 15 19 1010.8 - 0.0 - Mostly clear 10 - - - -
28/07:00pm 11.7 WNW 17 28 1010.6 - 0.0 - Mostly clear 10 - - - -
28/06:30pm 11.1 NW 16 21 1010.0 - 0.0 - Mostly clear 10 - - - -
28/06:00pm 12.1 NW 11 17 1009.8 R 0.0 Fine Mostly cloudy 40 - - - -
28/05:30pm 12.1 NW 11 23 1009.5 - 0.0 - Mostly clear 10 - - - -
28/05:00pm 12.0 WNW 16 29 1009.0 - 0.0 - Mostly clear 10 - - - -
28/04:42pm 12.6 WNW 16 29 1008.5 - 0.0 - Mostly clear 10 - - - -
28/04:30pm 12.4 WNW 16 23 1008.5 - 0.0 - Mostly clear 10 - - - -
28/04:00pm 13.1 WNW 19 28 1008.0 - 0.0 - Mostly clear 10 - - - -
28/03:30pm 13.6 W 24 37 1007.0 - 0.0 - Mostly clear 10 - - - -
28/03:00pm 13.8 W 29 43 1005.6 F 0.0 Fine Partly cloudy 40 - - - -
28/02:30pm 14.2 WNW 31 41 1004.8 - 0.0 - Partly cloudy 10 - - - -
28/02:00pm 14.1 WNW 29 39 1005.2 - 0.0 - Partly cloudy 10 - - - -
28/01:30pm 14.3 WNW 25 34 1006.0 - 0.0 - Partly cloudy 10 - - - -
28/01:00pm 14.0 WNW 25 39 1007.0 - 0.0 - Partly cloudy 10 - - - -
28/12:30pm 14.2 WNW 23 38 1007.0 - 0.0 - - 10 - - - -
28/12:00pm 14.7 WNW 26 36 1006.7 R 0.0 Fine Mostly clear 40 - - - -
28/11:48am 14.9 W 24 34 1006.4 - 0.0 - Mostly clear 10 - - - -
28/11:30am 14.6 W 26 35 1006.6 - 0.0 - Mostly clear 10 - - - -
28/11:00am 14.6 WNW 26 34 1007.2 - 0.0 - Mostly clear 10 - - - -
28/10:30am 14.3 WNW 23 32 1007.2 - 0.0 - Mostly clear 10 - - - -
28/10:00am 14.2 WNW 23 32 1007.0 - 0.0 - Mostly clear 10 - - - -
28/09:33am 14.2 WNW 21 31 1007.2 - 0.0 - Mostly clear 10 - - - -
28/09:30am 14.1 WNW 20 29 1007.3 - 0.0 - Mostly clear 10 - - - -
28/09:11am 13.8 WNW 21 31 1007.3 - 0.0 - Mostly clear 10 - - - -
28/09:00am 13.4 WNW 18 32 1007.3 R 0.6 Haze Partly cloudy 35 - - - -
28/08:30am 12.4 NW 16 28 1007.3 - 0.6 - Mostly clear 10 - - - -
28/08:28am 12.3 NW 15 28 1007.2 - 0.6 - Mostly clear 10 - - - -
28/08:00am 11.8 NW 15 24 1006.9 - 0.6 - Mostly clear 10 - - - -
28/07:49am 12.0 NW 16 26 1006.8 - 0.6 - Mostly clear 10 - - - -
28/07:30am 11.0 NNW 14 19 1006.3 - 0.6 - Partly cloudy 10 - - - -
28/07:00am 10.8 NW 13 18 1006.7 - 0.6 - Partly cloudy 10 - - - -
28/06:30am 10.5 NW 14 18 1006.7 - 0.6 - Partly cloudy 10 - - - -
28/06:00am 10.7 WNW 13 20 1006.5 F 0.6 Fine Mostly cloudy 35 - - - -
28/05:30am 9.8 WNW 12 19 1006.8 - 0.6 - Mostly clear 10 - - - -
28/05:00am 10.8 NW 17 21 1006.8 - 0.6 - Mostly clear 10 - - - -
28/04:30am 10.1 NW 13 18 1007.1 - 0.6 - Mostly clear 10 - - - -
28/04:18am 10.5 WNW 16 38 1007.4 - 0.6 - Mostly clear 10 - - - -
28/04:14am 10.9 NW 15 38 1007.3 - 0.6 - Mostly clear 10 - - - -
28/04:00am 10.8 WNW 14 21 1007.4 - 0.6 - Mostly clear 10 - - - -
28/03:30am 10.9 W 17 25 1007.6 - 0.6 - Mostly clear 10 - - - -
28/03:09am 11.1 W 15 28 1007.6 - 0.6 - Mostly clear 10 - - - -
28/03:00am 11.1 WNW 15 22 1007.6 R 0.6 Fine Mostly cloudy 30 - - - -
28/02:30am 11.0 W 17 29 1007.9 - 0.6 - Mostly clear 10 - - - -
28/02:23am 11.1 WNW 15 29 1007.9 - 0.6 - Mostly clear 10 - - - -
28/02:00am 11.4 WNW 14 20 1007.7 - 0.6 - Mostly clear 10 - - - -
28/01:32am 10.9 WNW 16 26 1007.3 - 0.6 - Mostly clear 10 - - - -
28/01:30am 11.1 WNW 17 23 1007.2 - 0.6 - Mostly clear 10 - - - -
28/01:20am 11.2 WNW 17 29 1007.0 - 0.6 - Mostly clear 10 - - - -
28/01:00am 10.9 WNW 15 21 1006.9 - 0.6 - Mostly clear 10 - - - -
28/12:30am 10.9 WNW 17 26 1006.5 - 0.6 - Mostly clear 10 - - - -
28/12:08am 10.8 WNW 17 28 1006.2 - 0.6 - Mostly clear 10 - - - -
28/12:00am 10.6 WNW 18 26 1006.1 R 0.6 Fine Partly cloudy 30 - - - -
 
Date/Time
EST
Temp
°C
Wind Pressure Rain since
9am
mm
Weather Cloud Vis
km
Sea
Height
m
Swell
Dir  Spd
kts
Gust
kts
hPa Trend Height
m
Period
s
Dir
27/11:36pm 10.8 WNW 20 30 1005.8 - 0.6 - Mostly clear 10 - - - -
27/11:30pm 11.0 WNW 17 26 1005.7 - 0.6 - Mostly clear 10 - - - -
27/11:00pm 10.8 W 15 21 1005.4 - 0.6 - Mostly clear 10 - - - -
27/10:30pm 11.1 W 16 25 1005.4 - 0.6 - Mostly clear 10 - - - -
27/10:04pm 10.8 W 17 28 1005.0 - 0.6 - Mostly clear 10 - - - -
27/10:00pm 10.6 W 17 22 1005.2 - 0.6 - Mostly clear 10 - - - -
27/09:30pm 10.2 WNW 15 21 1004.6 - 0.6 - Mostly clear 10 - - - -
27/09:07pm 10.6 WNW 15 25 1004.4 - 0.6 - Mostly clear 10 - - - -
27/09:00pm 10.0 WNW 12 16 1004.5 R 0.6 Distant precip. Mostly clear 30 - - - -
27/08:30pm 9.4 WNW 13 19 1003.4 - 0.6 - Mostly clear 10 - - - -
27/08:00pm 9.1 W 15 20 1003.3 - 0.6 - Mostly clear 10 - - - -
27/07:30pm 8.7 WNW 13 17 1003.1 - 0.4 Showers Mostly clear 10 - - - -
27/07:25pm 8.7 WNW 15 20 1002.9 - 0.4 Showers Mostly clear 10 - - - -

Other Formats:

Comma delimited format used in spreadsheet applications
http://www.bom.gov.au/fwo/IDT60701/IDT60701.94975.axf

JavaScript Object Notation format (JSON) in row-major order
http://www.bom.gov.au/fwo/IDT60701/IDT60701.94975.json